Terminal Aerodrome Forecast
Issued by NWS

Home | Current Version | Previous Version | Text Only | Print | Product List | Glossary On
Versions: 1 2 3 4 5 6 7 8 9 10 11 12 13 14 15 16 17 18 19 20 21 22 23 24 25 26 27 28 29 30
000
FTUS41 KILN 221100
TAFLUK
TAF
KLUK 221135Z 2212/2312 00000KT 3SM BR FEW060
     FM221300 20005KT P6SM SCT040
     FM230000 VRB03KT P6SM SCT250
     FM230700 23004KT P6SM SCT100 BKN200=

USA.gov is the U.S. government's official web portal to all federal, state and local government web resources and services.